Allenton, WI

8:06 AM CDT on May 30, 2015 (GMT -0500)
Fond du Lac County | | Change Station
CLOSE
Current Station
Airport
Location: Fond du Lac,
Elevation: 807 ft
Nearby Weather Stations

Elev 807 ft 43.77 °N, 88.49 °W | Updated 13 minutes ago

Rain
Rain
55 °F
Feels Like 55 °F
N
15
Wind Variable Wind from NE
Gusts 22 mph

Today
High -- | Low -- °F
--% Chance of Precip.
Yesterday
High -- | Low -- °F
Precip. -- in
5:16 AM 8:25 PM
Waxing Gibbous, 90% visible
Pressure 30.05 in
Visibility 5.0 miles
Clouds Mostly Cloudy 800 ft
Mostly Cloudy 1300 ft
Overcast 2200 ft
Dew Point 52 °F
Humidity 89%
Rainfall 0.54 in
Snow Depth Not available.
UV 1 out of 12
Pollen .90 out of 12
Air Quality Not available.
Flu Activity Sporadic
METAR KFLD 301253Z AUTO 04013G19KT 5SM -RA BR BKN008 BKN013 OVC022 13/11 A3005 RMK AO2 SLP174 P0009 T01280111

More Conditions Fewer Conditions

Pressure 30.05 in
Visibility 5.0 miles
Clouds Mostly Cloudy 800 ft
Mostly Cloudy 1300 ft
Overcast 2200 ft
Dew Point 52 °F
Humidity 89%
Rainfall 0.54 in
Snow Depth Not available.
UV 1 out of 12
Pollen .90 out of 12
Air Quality Not available.
Flu Activity Sporadic
METAR KFLD 301253Z AUTO 04013G19KT 5SM -RA BR BKN008 BKN013 OVC022 13/11 A3005 RMK AO2 SLP174 P0009 T01280111

More Conditions Fewer Conditions

10-Day Weather Forecast

Almanac

Astronomy

May. 30, 2015 Rise Set
Actual Time
Civil Twilight
Nautical Twilight
Astronomical Twilight
Moon
Length of Visible Light
Length of Day
Tomorrow will be .
, % of the Moon is Illuminated

Today's Extremes

State Highs State Lows

Community

WunderPhotos

Upload Photos

1,825,504 photos uploaded!

WunderBlogs® & News

Nearby

Air Quality

  Air Quality AQ Index Pollutant
Not available.

Snow Depth

Station Depth Elevation

Earthquake Activity

City Distance Mag. Time & Date
Minimum magnitude displayed is 2.5.

Coastal Water Temperatures

Place Temperature

Stations

Nearby Weather Stations

Station Location Temp. Windchill Dew Point Humidity Wind Precip. Elev Updated Type